sensor_id;sensor_type;location;lat;lon;timestamp;pressure;altitude;pressure_sealevel;temperature;humidity
18275;BME280;19470;49.322;7.218;2023-04-24T00:00:45;97526.84;;;16.47;95.26
18275;BME280;19470;49.322;7.218;2023-04-24T00:03:12;97524.47;;;15.70;98.51
18275;BME280;19470;49.322;7.218;2023-04-24T00:05:39;97515.75;;;16.09;97.52
18275;BME280;19470;49.322;7.218;2023-04-24T00:08:06;97510.94;;;15.52;100.00
18275;BME280;19470;49.322;7.218;2023-04-24T00:10:33;97501.75;;;16.03;99.15
18275;BME280;19470;49.322;7.218;2023-04-24T00:12:59;97503.50;;;16.08;98.26
18275;BME280;19470;49.322;7.218;2023-04-24T00:15:27;97522.28;;;15.94;99.21
18275;BME280;19470;49.322;7.218;2023-04-24T00:17:54;97507.53;;;16.19;98.58
18275;BME280;19470;49.322;7.218;2023-04-24T00:20:20;97534.28;;;15.24;100.00
18275;BME280;19470;49.322;7.218;2023-04-24T00:22:47;97507.72;;;16.31;97.53
18275;BME280;19470;49.322;7.218;2023-04-24T00:25:14;97510.00;;;16.16;98.62
18275;BME280;19470;49.322;7.218;2023-04-24T00:27:41;97508.56;;;15.28;100.00
18275;BME280;19470;49.322;7.218;2023-04-24T00:30:08;97519.97;;;16.01;99.19
18275;BME280;19470;49.322;7.218;2023-04-24T00:32:36;97522.63;;;15.20;100.00
18275;BME280;19470;49.322;7.218;2023-04-24T00:35:03;97513.38;;;15.76;100.00
18275;BME280;19470;49.322;7.218;2023-04-24T00:37:31;97514.28;;;15.72;100.00
18275;BME280;19470;49.322;7.218;2023-04-24T00:39:57;97519.66;;;15.08;100.00
18275;BME280;19470;49.322;7.218;2023-04-24T00:42:24;97534.03;;;15.34;100.00
18275;BME280;19470;49.322;7.218;2023-04-24T00:44:51;97527.66;;;15.22;100.00
18275;BME280;19470;49.322;7.218;2023-04-24T00:47:18;97536.66;;;14.98;100.00
18275;BME280;19470;49.322;7.218;2023-04-24T00:49:46;97541.41;;;14.74;100.00
18275;BME280;19470;49.322;7.218;2023-04-24T00:52:13;97555.53;;;14.61;100.00
18275;BME280;19470;49.322;7.218;2023-04-24T00:54:43;97556.22;;;14.33;100.00
18275;BME280;19470;49.322;7.218;2023-04-24T00:57:09;97553.66;;;13.96;100.00
18275;BME280;19470;49.322;7.218;2023-04-24T00:59:36;97552.53;;;14.48;100.00
18275;BME280;19470;49.322;7.218;2023-04-24T01:02:03;97549.78;;;13.55;100.00
18275;BME280;19470;49.322;7.218;2023-04-24T01:04:30;97536.94;;;14.09;100.00
18275;BME280;19470;49.322;7.218;2023-04-24T01:06:58;97549.13;;;14.29;100.00
18275;BME280;19470;49.322;7.218;2023-04-24T01:09:25;97551.19;;;13.48;100.00
18275;BME280;19470;49.322;7.218;2023-04-24T01:11:52;97552.38;;;14.26;100.00
18275;BME280;19470;49.322;7.218;2023-04-24T01:14:19;97557.88;;;13.64;100.00
18275;BME280;19470;49.322;7.218;2023-04-24T01:16:46;97555.25;;;13.78;100.00
18275;BME280;19470;49.322;7.218;2023-04-24T01:19:13;97559.16;;;13.86;100.00
18275;BME280;19470;49.322;7.218;2023-04-24T01:21:42;97555.13;;;13.88;100.00
18275;BME280;19470;49.322;7.218;2023-04-24T01:24:10;97560.56;;;13.97;100.00
18275;BME280;19470;49.322;7.218;2023-04-24T01:26:38;97562.84;;;13.33;100.00
18275;BME280;19470;49.322;7.218;2023-04-24T01:29:04;97562.47;;;13.40;100.00
18275;BME280;19470;49.322;7.218;2023-04-24T01:31:49;97566.66;;;13.65;100.00
18275;BME280;19470;49.322;7.218;2023-04-24T01:34:16;97568.06;;;13.95;100.00
18275;BME280;19470;49.322;7.218;2023-04-24T01:36:43;97569.38;;;13.41;100.00
18275;BME280;19470;49.322;7.218;2023-04-24T01:39:13;97566.91;;;13.25;100.00
18275;BME280;19470;49.322;7.218;2023-04-24T01:41:40;97568.25;;;13.47;100.00
18275;BME280;19470;49.322;7.218;2023-04-24T01:44:07;97575.75;;;12.97;100.00
18275;BME280;19470;49.322;7.218;2023-04-24T01:46:34;97570.28;;;14.20;100.00
18275;BME280;19470;49.322;7.218;2023-04-24T01:49:01;97573.13;;;14.10;100.00
18275;BME280;19470;49.322;7.218;2023-04-24T01:51:28;97571.91;;;13.70;100.00
18275;BME280;19470;49.322;7.218;2023-04-24T01:53:55;97580.94;;;13.69;100.00
18275;BME280;19470;49.322;7.218;2023-04-24T01:59:44;97579.19;;;14.29;100.00
18275;BME280;19470;49.322;7.218;2023-04-24T02:02:11;97590.84;;;14.01;100.00
18275;BME280;19470;49.322;7.218;2023-04-24T02:04:37;97596.09;;;14.39;100.00
18275;BME280;19470;49.322;7.218;2023-04-24T02:07:04;97592.38;;;13.32;100.00
18275;BME280;19470;49.322;7.218;2023-04-24T02:09:30;97587.25;;;13.92;100.00
18275;BME280;19470;49.322;7.218;2023-04-24T02:11:57;97596.88;;;13.31;100.00
18275;BME280;19470;49.322;7.218;2023-04-24T02:14:23;97590.53;;;13.51;100.00
18275;BME280;19470;49.322;7.218;2023-04-24T02:16:51;97602.66;;;13.57;100.00
18275;BME280;19470;49.322;7.218;2023-04-24T02:19:18;97600.22;;;13.42;100.00
18275;BME280;19470;49.322;7.218;2023-04-24T02:21:45;97593.44;;;13.07;100.00
18275;BME280;19470;49.322;7.218;2023-04-24T02:24:11;97602.19;;;13.07;100.00
18275;BME280;19470;49.322;7.218;2023-04-24T02:26:38;97613.22;;;13.43;100.00
18275;BME280;19470;49.322;7.218;2023-04-24T02:29:04;97626.28;;;13.40;100.00
18275;BME280;19470;49.322;7.218;2023-04-24T02:31:31;97617.84;;;13.57;100.00
18275;BME280;19470;49.322;7.218;2023-04-24T02:33:59;97618.72;;;13.04;100.00
18275;BME280;19470;49.322;7.218;2023-04-24T02:36:25;97640.53;;;13.01;100.00
18275;BME280;19470;49.322;7.218;2023-04-24T02:38:52;97635.41;;;13.34;100.00
18275;BME280;19470;49.322;7.218;2023-04-24T02:41:18;97633.66;;;13.24;100.00
18275;BME280;19470;49.322;7.218;2023-04-24T02:43:45;97643.91;;;12.83;100.00
18275;BME280;19470;49.322;7.218;2023-04-24T02:46:12;97646.72;;;12.67;100.00
18275;BME280;19470;49.322;7.218;2023-04-24T02:48:38;97645.13;;;13.19;100.00
18275;BME280;19470;49.322;7.218;2023-04-24T02:51:06;97645.50;;;12.84;100.00
18275;BME280;19470;49.322;7.218;2023-04-24T02:53:33;97632.31;;;12.73;100.00
18275;BME280;19470;49.322;7.218;2023-04-24T02:55:59;97639.44;;;12.78;100.00
18275;BME280;19470;49.322;7.218;2023-04-24T02:58:26;97641.31;;;13.01;100.00
18275;BME280;19470;49.322;7.218;2023-04-24T03:00:53;97647.00;;;12.95;100.00
18275;BME280;19470;49.322;7.218;2023-04-24T03:03:20;97646.88;;;12.81;100.00
18275;BME280;19470;49.322;7.218;2023-04-24T03:05:47;97643.97;;;12.77;100.00
18275;BME280;19470;49.322;7.218;2023-04-24T03:08:14;97651.13;;;13.30;100.00
18275;BME280;19470;49.322;7.218;2023-04-24T03:10:41;97641.69;;;13.19;100.00
18275;BME280;19470;49.322;7.218;2023-04-24T03:13:07;97635.09;;;13.11;100.00
18275;BME280;19470;49.322;7.218;2023-04-24T03:15:34;97631.59;;;13.40;100.00
18275;BME280;19470;49.322;7.218;2023-04-24T03:18:00;97646.66;;;13.25;100.00
18275;BME280;19470;49.322;7.218;2023-04-24T03:20:27;97650.72;;;12.94;100.00
18275;BME280;19470;49.322;7.218;2023-04-24T03:22:54;97640.41;;;13.11;100.00
18275;BME280;19470;49.322;7.218;2023-04-24T03:25:23;97656.25;;;13.69;100.00
18275;BME280;19470;49.322;7.218;2023-04-24T03:27:49;97651.72;;;13.89;100.00
18275;BME280;19470;49.322;7.218;2023-04-24T03:30:16;97649.41;;;14.01;99.66
18275;BME280;19470;49.322;7.218;2023-04-24T03:32:42;97646.81;;;13.96;99.45
18275;BME280;19470;49.322;7.218;2023-04-24T03:35:09;97645.03;;;13.91;100.00
18275;BME280;19470;49.322;7.218;2023-04-24T03:37:36;97651.56;;;13.99;99.44
18275;BME280;19470;49.322;7.218;2023-04-24T03:40:03;97656.31;;;14.02;100.00
18275;BME280;19470;49.322;7.218;2023-04-24T03:42:32;97648.63;;;13.81;99.78
18275;BME280;19470;49.322;7.218;2023-04-24T03:44:58;97667.72;;;12.93;100.00
18275;BME280;19470;49.322;7.218;2023-04-24T03:47:25;97668.25;;;13.19;100.00
18275;BME280;19470;49.322;7.218;2023-04-24T03:49:51;97666.25;;;13.35;100.00
18275;BME280;19470;49.322;7.218;2023-04-24T03:52:28;97670.41;;;13.41;100.00
18275;BME280;19470;49.322;7.218;2023-04-24T03:54:55;97667.59;;;13.56;100.00
18275;BME280;19470;49.322;7.218;2023-04-24T03:57:21;97670.09;;;13.23;100.00
18275;BME280;19470;49.322;7.218;2023-04-24T03:59:49;97672.09;;;13.37;100.00
18275;BME280;19470;49.322;7.218;2023-04-24T04:02:16;97665.44;;;13.96;100.00
18275;BME280;19470;49.322;7.218;2023-04-24T04:04:43;97666.00;;;12.78;100.00
18275;BME280;19470;49.322;7.218;2023-04-24T04:07:09;97664.22;;;13.21;100.00
18275;BME280;19470;49.322;7.218;2023-04-24T04:09:36;97665.06;;;12.93;100.00
18275;BME280;19470;49.322;7.218;2023-04-24T04:12:02;97668.44;;;13.51;100.00
18275;BME280;19470;49.322;7.218;2023-04-24T04:14:29;97660.28;;;13.86;100.00
18275;BME280;19470;49.322;7.218;2023-04-24T04:16:57;97664.50;;;14.05;99.68
18275;BME280;19470;49.322;7.218;2023-04-24T04:19:23;97671.78;;;14.00;98.41
18275;BME280;19470;49.322;7.218;2023-04-24T04:21:50;97676.19;;;13.48;100.00
18275;BME280;19470;49.322;7.218;2023-04-24T04:24:18;97672.78;;;13.18;100.00
18275;BME280;19470;49.322;7.218;2023-04-24T04:26:46;97669.75;;;13.30;100.00
18275;BME280;19470;49.322;7.218;2023-04-24T04:29:12;97687.84;;;13.52;100.00
18275;BME280;19470;49.322;7.218;2023-04-24T04:31:39;97674.66;;;13.85;100.00
18275;BME280;19470;49.322;7.218;2023-04-24T04:34:07;97678.50;;;13.30;100.00
18275;BME280;19470;49.322;7.218;2023-04-24T04:36:34;97674.50;;;14.32;97.64
18275;BME280;19470;49.322;7.218;2023-04-24T04:39:01;97681.91;;;13.60;100.00
18275;BME280;19470;49.322;7.218;2023-04-24T04:41:29;97674.59;;;13.90;100.00
18275;BME280;19470;49.322;7.218;2023-04-24T04:43:55;97686.69;;;13.10;100.00
18275;BME280;19470;49.322;7.218;2023-04-24T04:46:23;97689.53;;;13.67;100.00
18275;BME280;19470;49.322;7.218;2023-04-24T04:48:51;97698.34;;;13.14;100.00
18275;BME280;19470;49.322;7.218;2023-04-24T04:51:19;97705.25;;;13.63;100.00
18275;BME280;19470;49.322;7.218;2023-04-24T04:53:46;97698.09;;;13.82;100.00
18275;BME280;19470;49.322;7.218;2023-04-24T04:56:12;97707.09;;;13.44;100.00
18275;BME280;19470;49.322;7.218;2023-04-24T04:58:39;97710.06;;;14.04;100.00
18275;BME280;19470;49.322;7.218;2023-04-24T05:01:05;97718.84;;;12.79;100.00
18275;BME280;19470;49.322;7.218;2023-04-24T05:03:32;97722.03;;;13.40;100.00
18275;BME280;19470;49.322;7.218;2023-04-24T05:05:58;97721.91;;;13.50;100.00
18275;BME280;19470;49.322;7.218;2023-04-24T05:08:26;97723.81;;;13.68;100.00
18275;BME280;19470;49.322;7.218;2023-04-24T05:10:53;97726.16;;;13.51;100.00
18275;BME280;19470;49.322;7.218;2023-04-24T05:13:19;97733.06;;;13.95;100.00
18275;BME280;19470;49.322;7.218;2023-04-24T05:15:46;97737.59;;;13.27;100.00
18275;BME280;19470;49.322;7.218;2023-04-24T05:18:13;97735.13;;;13.31;100.00
18275;BME280;19470;49.322;7.218;2023-04-24T05:20:40;97741.53;;;13.54;100.00
18275;BME280;19470;49.322;7.218;2023-04-24T05:23:08;97747.03;;;13.63;100.00
18275;BME280;19470;49.322;7.218;2023-04-24T05:25:37;97744.88;;;13.89;100.00
18275;BME280;19470;49.322;7.218;2023-04-24T05:28:05;97754.38;;;13.95;100.00
18275;BME280;19470;49.322;7.218;2023-04-24T05:30:31;97755.25;;;13.13;100.00
18275;BME280;19470;49.322;7.218;2023-04-24T05:32:58;97764.47;;;13.21;100.00
18275;BME280;19470;49.322;7.218;2023-04-24T05:35:24;97765.88;;;12.79;100.00
18275;BME280;19470;49.322;7.218;2023-04-24T05:37:51;97759.47;;;13.14;100.00
18275;BME280;19470;49.322;7.218;2023-04-24T05:40:17;97769.03;;;13.44;100.00
18275;BME280;19470;49.322;7.218;2023-04-24T05:42:45;97775.84;;;13.79;97.78
18275;BME280;19470;49.322;7.218;2023-04-24T05:45:12;97778.09;;;13.43;100.00
18275;BME280;19470;49.322;7.218;2023-04-24T05:47:41;97783.72;;;13.08;100.00
18275;BME280;19470;49.322;7.218;2023-04-24T05:50:09;97773.31;;;13.11;100.00
18275;BME280;19470;49.322;7.218;2023-04-24T05:52:35;97796.16;;;13.12;99.19
18275;BME280;19470;49.322;7.218;2023-04-24T05:55:02;97788.50;;;12.76;100.00
18275;BME280;19470;49.322;7.218;2023-04-24T05:57:29;97776.13;;;13.54;97.63
18275;BME280;19470;49.322;7.218;2023-04-24T05:59:57;97786.06;;;13.14;97.27
18275;BME280;19470;49.322;7.218;2023-04-24T06:02:23;97793.09;;;13.58;95.43
18275;BME280;19470;49.322;7.218;2023-04-24T06:04:50;97799.56;;;13.52;94.54
18275;BME280;19470;49.322;7.218;2023-04-24T06:07:16;97795.94;;;13.67;95.50
18275;BME280;19470;49.322;7.218;2023-04-24T06:09:43;97814.59;;;13.03;94.71
18275;BME280;19470;49.322;7.218;2023-04-24T06:12:09;97807.03;;;13.16;92.77
18275;BME280;19470;49.322;7.218;2023-04-24T06:14:36;97820.97;;;13.66;90.92
18275;BME280;19470;49.322;7.218;2023-04-24T06:17:03;97817.75;;;12.71;95.50
18275;BME280;19470;49.322;7.218;2023-04-24T06:19:30;97828.59;;;12.80;92.87
18275;BME280;19470;49.322;7.218;2023-04-24T06:21:57;97814.63;;;13.86;90.18
18275;BME280;19470;49.322;7.218;2023-04-24T06:24:27;97833.63;;;12.82;94.77
18275;BME280;19470;49.322;7.218;2023-04-24T06:26:53;97829.38;;;12.81;93.75
18275;BME280;19470;49.322;7.218;2023-04-24T06:29:21;97823.50;;;13.52;90.41
18275;BME280;19470;49.322;7.218;2023-04-24T06:31:48;97837.72;;;13.66;87.50
18275;BME280;19470;49.322;7.218;2023-04-24T06:34:16;97835.47;;;13.49;89.56
18275;BME280;19470;49.322;7.218;2023-04-24T06:36:42;97839.06;;;13.88;87.82
18275;BME280;19470;49.322;7.218;2023-04-24T06:39:09;97846.72;;;13.07;89.30
18275;BME280;19470;49.322;7.218;2023-04-24T06:41:35;97838.09;;;13.25;89.43
18275;BME280;19470;49.322;7.218;2023-04-24T06:44:02;97839.31;;;13.91;86.58
18275;BME280;19470;49.322;7.218;2023-04-24T06:46:28;97836.31;;;12.76;89.52
18275;BME280;19470;49.322;7.218;2023-04-24T06:48:55;97848.47;;;13.22;89.47
18275;BME280;19470;49.322;7.218;2023-04-24T06:51:24;97848.88;;;13.05;88.57
18275;BME280;19470;49.322;7.218;2023-04-24T06:53:51;97851.94;;;13.17;87.86
18275;BME280;19470;49.322;7.218;2023-04-24T06:56:18;97857.25;;;13.17;87.62
18275;BME280;19470;49.322;7.218;2023-04-24T06:58:44;97856.53;;;13.46;87.35
18275;BME280;19470;49.322;7.218;2023-04-24T07:01:11;97870.63;;;13.07;88.24
18275;BME280;19470;49.322;7.218;2023-04-24T07:03:38;97857.22;;;13.27;85.54
18275;BME280;19470;49.322;7.218;2023-04-24T07:06:05;97872.88;;;12.95;85.74
18275;BME280;19470;49.322;7.218;2023-04-24T07:08:33;97871.56;;;13.32;82.59
18275;BME280;19470;49.322;7.218;2023-04-24T07:11:01;97860.03;;;13.70;82.73
18275;BME280;19470;49.322;7.218;2023-04-24T07:13:27;97868.50;;;13.09;86.39
18275;BME280;19470;49.322;7.218;2023-04-24T07:15:54;97887.47;;;13.37;86.10
18275;BME280;19470;49.322;7.218;2023-04-24T07:18:21;97888.31;;;12.88;86.84
18275;BME280;19470;49.322;7.218;2023-04-24T07:20:48;97867.53;;;12.95;86.64
18275;BME280;19470;49.322;7.218;2023-04-24T07:23:15;97867.97;;;13.07;87.34
18275;BME280;19470;49.322;7.218;2023-04-24T07:25:43;97875.50;;;13.34;87.28
18275;BME280;19470;49.322;7.218;2023-04-24T07:28:09;97883.84;;;12.78;89.03
18275;BME280;19470;49.322;7.218;2023-04-24T07:30:36;97886.38;;;13.38;86.36
18275;BME280;19470;49.322;7.218;2023-04-24T07:33:02;97875.06;;;13.56;86.23
18275;BME280;19470;49.322;7.218;2023-04-24T07:35:29;97879.75;;;13.35;88.99
18275;BME280;19470;49.322;7.218;2023-04-24T07:37:55;97896.38;;;13.12;91.10
18275;BME280;19470;49.322;7.218;2023-04-24T07:40:22;97880.66;;;12.81;90.62
18275;BME280;19470;49.322;7.218;2023-04-24T07:42:50;97900.81;;;13.26;90.02
18275;BME280;19470;49.322;7.218;2023-04-24T07:45:16;97891.78;;;12.83;93.80
18275;BME280;19470;49.322;7.218;2023-04-24T07:47:43;97908.06;;;12.71;92.50
18275;BME280;19470;49.322;7.218;2023-04-24T07:50:10;97908.09;;;12.66;93.42
18275;BME280;19470;49.322;7.218;2023-04-24T07:52:37;97910.69;;;13.21;90.52
18275;BME280;19470;49.322;7.218;2023-04-24T07:55:04;97918.25;;;12.98;90.40
18275;BME280;19470;49.322;7.218;2023-04-24T07:57:32;97915.94;;;12.87;92.83
18275;BME280;19470;49.322;7.218;2023-04-24T07:59:59;97901.28;;;13.39;90.20
18275;BME280;19470;49.322;7.218;2023-04-24T08:02:26;97910.78;;;13.45;88.94
18275;BME280;19470;49.322;7.218;2023-04-24T08:04:53;97911.81;;;14.07;84.78
18275;BME280;19470;49.322;7.218;2023-04-24T08:07:20;97927.97;;;13.23;88.40
18275;BME280;19470;49.322;7.218;2023-04-24T08:09:46;97910.31;;;13.38;89.17
18275;BME280;19470;49.322;7.218;2023-04-24T08:12:13;97924.13;;;13.40;87.92
18275;BME280;19470;49.322;7.218;2023-04-24T08:14:39;97959.97;;;13.08;89.71
18275;BME280;19470;49.322;7.218;2023-04-24T08:17:07;97919.00;;;13.77;86.14
18275;BME280;19470;49.322;7.218;2023-04-24T08:19:34;97919.75;;;13.54;89.53
18275;BME280;19470;49.322;7.218;2023-04-24T08:22:00;97919.44;;;13.26;92.26
18275;BME280;19470;49.322;7.218;2023-04-24T08:24:27;97934.28;;;13.67;89.10
18275;BME280;19470;49.322;7.218;2023-04-24T08:26:54;97944.31;;;12.37;99.32
18275;BME280;19470;49.322;7.218;2023-04-24T08:29:23;97935.06;;;13.38;95.54
18275;BME280;19470;49.322;7.218;2023-04-24T08:31:49;97947.72;;;12.58;100.00
18275;BME280;19470;49.322;7.218;2023-04-24T08:34:17;97953.09;;;12.97;100.00
18275;BME280;19470;49.322;7.218;2023-04-24T08:36:44;97965.59;;;12.26;100.00
18275;BME280;19470;49.322;7.218;2023-04-24T08:39:10;97967.00;;;13.67;100.00
18275;BME280;19470;49.322;7.218;2023-04-24T08:41:37;97976.94;;;12.52;100.00
18275;BME280;19470;49.322;7.218;2023-04-24T08:44:04;97985.13;;;12.66;100.00
18275;BME280;19470;49.322;7.218;2023-04-24T08:46:32;97982.19;;;13.17;100.00
18275;BME280;19470;49.322;7.218;2023-04-24T08:48:59;97989.44;;;13.56;98.80
18275;BME280;19470;49.322;7.218;2023-04-24T08:51:27;97987.25;;;12.64;100.00
18275;BME280;19470;49.322;7.218;2023-04-24T08:53:55;97984.34;;;12.66;100.00
18275;BME280;19470;49.322;7.218;2023-04-24T08:56:23;97983.03;;;13.57;99.94
18275;BME280;19470;49.322;7.218;2023-04-24T08:58:51;98006.50;;;13.00;99.33
18275;BME280;19470;49.322;7.218;2023-04-24T09:01:19;97997.00;;;13.39;98.29
18275;BME280;19470;49.322;7.218;2023-04-24T09:03:46;98004.00;;;13.19;100.00
18275;BME280;19470;49.322;7.218;2023-04-24T09:06:16;97998.31;;;12.92;97.73
18275;BME280;19470;49.322;7.218;2023-04-24T09:08:45;98003.69;;;13.70;95.11
18275;BME280;19470;49.322;7.218;2023-04-24T09:11:12;97998.44;;;13.94;91.64
18275;BME280;19470;49.322;7.218;2023-04-24T09:13:38;97998.69;;;13.98;93.59
18275;BME280;19470;49.322;7.218;2023-04-24T09:16:05;97977.19;;;12.61;97.82
18275;BME280;19470;49.322;7.218;2023-04-24T09:18:32;98017.38;;;13.09;98.96
18275;BME280;19470;49.322;7.218;2023-04-24T09:21:02;98011.50;;;13.07;97.72
18275;BME280;19470;49.322;7.218;2023-04-24T09:23:30;98006.38;;;13.26;100.00
18275;BME280;19470;49.322;7.218;2023-04-24T09:25:59;98028.44;;;13.32;95.57
18275;BME280;19470;49.322;7.218;2023-04-24T09:31:48;98044.78;;;12.99;98.29
18275;BME280;19470;49.322;7.218;2023-04-24T09:34:14;98020.06;;;12.99;95.93
18275;BME280;19470;49.322;7.218;2023-04-24T09:36:42;98027.44;;;13.96;93.50
18275;BME280;19470;49.322;7.218;2023-04-24T09:39:14;98059.34;;;13.22;97.03
18275;BME280;19470;49.322;7.218;2023-04-24T09:41:45;98046.81;;;12.48;99.84
18275;BME280;19470;49.322;7.218;2023-04-24T09:44:13;98037.75;;;12.59;100.00
18275;BME280;19470;49.322;7.218;2023-04-24T09:46:41;98034.53;;;12.72;100.00
18275;BME280;19470;49.322;7.218;2023-04-24T09:49:08;98034.78;;;12.76;100.00
18275;BME280;19470;49.322;7.218;2023-04-24T09:51:37;98033.81;;;13.66;97.87
18275;BME280;19470;49.322;7.218;2023-04-24T09:54:04;98039.81;;;13.42;98.26
18275;BME280;19470;49.322;7.218;2023-04-24T09:56:42;98026.97;;;13.89;94.32
18275;BME280;19470;49.322;7.218;2023-04-24T09:59:10;98038.63;;;14.27;91.36
18275;BME280;19470;49.322;7.218;2023-04-24T10:01:37;98031.06;;;14.63;87.05
18275;BME280;19470;49.322;7.218;2023-04-24T10:04:15;98042.03;;;14.32;89.34
18275;BME280;19470;49.322;7.218;2023-04-24T10:06:42;98033.22;;;14.85;86.96
18275;BME280;19470;49.322;7.218;2023-04-24T10:09:09;98053.97;;;13.72;87.78
18275;BME280;19470;49.322;7.218;2023-04-24T10:11:37;98044.69;;;14.86;84.06
18275;BME280;19470;49.322;7.218;2023-04-24T10:14:03;98044.56;;;14.96;83.63
18275;BME280;19470;49.322;7.218;2023-04-24T10:16:31;98055.94;;;14.82;81.88
18275;BME280;19470;49.322;7.218;2023-04-24T10:18:59;98052.28;;;14.97;80.93
18275;BME280;19470;49.322;7.218;2023-04-24T10:21:26;98049.69;;;15.54;80.06
18275;BME280;19470;49.322;7.218;2023-04-24T10:23:53;98057.03;;;14.76;81.82
18275;BME280;19470;49.322;7.218;2023-04-24T10:26:20;98056.19;;;15.86;76.58
18275;BME280;19470;49.322;7.218;2023-04-24T10:28:48;98045.38;;;16.09;76.93
18275;BME280;19470;49.322;7.218;2023-04-24T10:31:14;98039.81;;;16.39;72.96
18275;BME280;19470;49.322;7.218;2023-04-24T10:33:43;98042.16;;;15.56;76.48
18275;BME280;19470;49.322;7.218;2023-04-24T10:36:10;98054.34;;;15.24;75.51
18275;BME280;19470;49.322;7.218;2023-04-24T10:38:39;98043.88;;;16.50;73.76
18275;BME280;19470;49.322;7.218;2023-04-24T10:41:07;98056.97;;;16.32;73.06
18275;BME280;19470;49.322;7.218;2023-04-24T10:43:42;98060.38;;;15.73;76.54
18275;BME280;19470;49.322;7.218;2023-04-24T10:46:09;98065.94;;;14.91;75.89
18275;BME280;19470;49.322;7.218;2023-04-24T10:48:43;98071.28;;;15.52;74.01
18275;BME280;19470;49.322;7.218;2023-04-24T10:51:13;98080.75;;;15.45;75.04
18275;BME280;19470;49.322;7.218;2023-04-24T10:53:40;98073.56;;;15.02;76.57
18275;BME280;19470;49.322;7.218;2023-04-24T10:56:07;98073.41;;;15.55;76.15
18275;BME280;19470;49.322;7.218;2023-04-24T10:58:37;98107.84;;;14.61;76.69
18275;BME280;19470;49.322;7.218;2023-04-24T11:01:05;98078.22;;;15.34;73.22
18275;BME280;19470;49.322;7.218;2023-04-24T11:03:32;98101.69;;;14.02;80.89
18275;BME280;19470;49.322;7.218;2023-04-24T11:06:03;98085.63;;;14.71;76.14
18275;BME280;19470;49.322;7.218;2023-04-24T11:08:32;98112.91;;;14.87;74.56
18275;BME280;19470;49.322;7.218;2023-04-24T11:11:08;98098.31;;;15.27;72.35
18275;BME280;19470;49.322;7.218;2023-04-24T11:14:03;98097.06;;;15.19;73.07
18275;BME280;19470;49.322;7.218;2023-04-24T11:16:32;98094.03;;;15.07;72.93
18275;BME280;19470;49.322;7.218;2023-04-24T11:19:01;98093.38;;;15.58;72.01
18275;BME280;19470;49.322;7.218;2023-04-24T11:21:38;98085.56;;;15.86;68.48
18275;BME280;19470;49.322;7.218;2023-04-24T11:27:13;98091.63;;;16.70;66.82
18275;BME280;19470;49.322;7.218;2023-04-24T11:29:42;98100.84;;;16.78;66.52
18275;BME280;19470;49.322;7.218;2023-04-24T11:32:23;98107.59;;;15.11;73.42
18275;BME280;19470;49.322;7.218;2023-04-24T11:34:51;98113.88;;;16.52;67.61
18275;BME280;19470;49.322;7.218;2023-04-24T11:37:19;98108.63;;;17.57;64.80
18275;BME280;19470;49.322;7.218;2023-04-24T11:39:46;98102.75;;;17.05;67.51
18275;BME280;19470;49.322;7.218;2023-04-24T11:42:14;98106.22;;;15.56;71.49
18275;BME280;19470;49.322;7.218;2023-04-24T11:44:41;98101.50;;;16.70;68.05
18275;BME280;19470;49.322;7.218;2023-04-24T11:47:08;98106.75;;;16.61;67.62
18275;BME280;19470;49.322;7.218;2023-04-24T11:49:36;98121.19;;;15.33;71.33
18275;BME280;19470;49.322;7.218;2023-04-24T11:52:04;98112.56;;;15.60;70.71
18275;BME280;19470;49.322;7.218;2023-04-24T11:54:32;98102.78;;;15.74;70.71
18275;BME280;19470;49.322;7.218;2023-04-24T11:56:59;98100.88;;;16.13;69.20
18275;BME280;19470;49.322;7.218;2023-04-24T11:59:25;98108.63;;;17.57;65.27
18275;BME280;19470;49.322;7.218;2023-04-24T12:01:52;98100.19;;;17.77;63.67
18275;BME280;19470;49.322;7.218;2023-04-24T12:04:18;98099.19;;;17.09;65.43
18275;BME280;19470;49.322;7.218;2023-04-24T12:07:00;98104.00;;;16.66;66.32
18275;BME280;19470;49.322;7.218;2023-04-24T12:09:27;98116.53;;;16.19;70.28
18275;BME280;19470;49.322;7.218;2023-04-24T12:11:55;98111.88;;;15.73;71.53
18275;BME280;19470;49.322;7.218;2023-04-24T12:14:23;98111.13;;;16.24;69.92
18275;BME280;19470;49.322;7.218;2023-04-24T12:16:50;98107.44;;;16.53;69.59
18275;BME280;19470;49.322;7.218;2023-04-24T12:19:21;98111.47;;;17.88;64.20
18275;BME280;19470;49.322;7.218;2023-04-24T12:22:16;98114.44;;;17.36;66.10
18275;BME280;19470;49.322;7.218;2023-04-24T12:24:59;98115.88;;;18.82;63.53
18275;BME280;19470;49.322;7.218;2023-04-24T12:27:30;98109.47;;;17.94;65.54
18275;BME280;19470;49.322;7.218;2023-04-24T12:29:57;98104.72;;;18.13;64.96
18275;BME280;19470;49.322;7.218;2023-04-24T12:32:25;98103.75;;;16.95;67.58
18275;BME280;19470;49.322;7.218;2023-04-24T12:34:52;98094.91;;;17.72;66.29
18275;BME280;19470;49.322;7.218;2023-04-24T12:37:19;98103.09;;;16.57;70.18
18275;BME280;19470;49.322;7.218;2023-04-24T12:40:04;98100.56;;;15.81;71.23
18275;BME280;19470;49.322;7.218;2023-04-24T12:42:34;98119.63;;;15.51;72.69
18275;BME280;19470;49.322;7.218;2023-04-24T12:45:02;98107.97;;;15.84;69.89
18275;BME280;19470;49.322;7.218;2023-04-24T12:47:30;98117.19;;;14.88;77.42
18275;BME280;19470;49.322;7.218;2023-04-24T12:49:56;98151.91;;;14.48;87.04
18275;BME280;19470;49.322;7.218;2023-04-24T12:52:23;98155.72;;;13.53;93.67
18275;BME280;19470;49.322;7.218;2023-04-24T12:54:52;98159.94;;;12.39;100.00
18275;BME280;19470;49.322;7.218;2023-04-24T12:57:19;98148.81;;;13.52;98.43
18275;BME280;19470;49.322;7.218;2023-04-24T12:59:47;98136.81;;;13.50;99.96
18275;BME280;19470;49.322;7.218;2023-04-24T13:02:13;98141.47;;;13.84;96.92
18275;BME280;19470;49.322;7.218;2023-04-24T13:04:43;98135.44;;;14.07;97.82
18275;BME280;19470;49.322;7.218;2023-04-24T13:07:09;98128.22;;;14.13;96.91